Peotone Weather

Nearby METAR Reports

 

KIGQ - Lansing, Illinois, USA
Distance from station: NE 19mi, 30km
Updated: Tue, 16-Jul-2019 6:55am CDT
Clear
Clear
 Wind from S
Wind: S 6 mph , 9 km/h
Temperature: 72°F , 22°C
Dew Point: 72°F , 22°C
Humidity: 100%
Barometer: 29.94 inHg , 1013.9 hPa
Clouds: Clear
Visibility: 10 miles , 16 km
2019/07/16 11:55 KIGQ 161155Z AUTO 17005KT 10SM CLR 22/22 A2994 RMK AO2 60016 70016 T02160215 10235 20210
KIKK - Kankakee, Illinois, USA
Distance from station: S 19mi, 30km
Updated: Tue, 16-Jul-2019 6:55am CDT
Rain, Overcast
Rain, Overcast
 Wind from S
Wind: S 6 mph , 9 km/h
Temperature: 72°F , 22°C
Dew Point: 72°F , 22°C
Humidity: 100%
Barometer: 29.95 inHg , 1014.2 hPa
Summary: Rain
Clouds: Overcast
Visibility: 3 miles , 5 km
Cloud details: Partly cloudy 1800 ft
Mostly cloudy 3400 ft
Overcast 4000 ft
2019/07/16 11:55 KIKK 161155Z AUTO 17005KT 3SM RA SCT018 BKN034 OVC040 22/22 A2995 RMK AO2 P0004 60005 70011 T02200216 10222 20212
 
KSJC - Joliet, Illinois, USA
Distance from station: WNW 24mi, 38km
Updated: Tue, 16-Jul-2019 6:53am CDT
Clear
Clear
 Wind from calm
Wind: Calm
Temperature: 61°F , 16°C
Dew Point: 57°F , 14°C
Humidity: 88%
Barometer: 29.92 inHg , 1013.2 hPa
Clouds: Clear
Visibility: 10 miles , 16 km
2019/07/16 11:53 KSJC 161153Z AUTO 00000KT 10SM CLR 16/14 A2992 RMK AO2 SLP130 T01560144 10189 20150 56010
KLOT - Romeoville, Illinois, USA
Distance from station: NW 26mi, 41km
Updated: Tue, 16-Jul-2019 6:50am CDT
Overcast
Overcast
 Wind from S
Wind: S 6 mph , 9 km/h
Temperature: 72°F , 22°C
Dew Point: 72°F , 22°C
Humidity: 100%
Barometer: 29.94 inHg , 1013.9 hPa
Clouds: Overcast
Visibility: 10 miles , 16 km
Cloud details: Mostly cloudy 2000 ft
Overcast 2500 ft
2019/07/16 11:50 KLOT 161150Z AUTO 17005KT 10SM BKN020 OVC025 22/22 A2994 RMK AO2 P0004 60004 70004 T02160215 10231 20210
 
KMDW - Midway Airport Chicago, Illinois, USA
Distance from station: N 31mi, 50km
Updated: Tue, 16-Jul-2019 6:53am CDT
Mostly cloudy
Mostly cloudy
 Wind from varies
Wind: varies 5 mph , 7 km/h
Temperature: 73°F , 23°C
Dew Point: 72°F , 22°C
Humidity: 94%
Barometer: 29.94 inHg , 1013.9 hPa
Clouds: Mostly cloudy
Visibility: 10 miles , 16 km
Cloud details: Few Clouds 900 ft
Mostly cloudy 2200 ft
Mostly cloudy 20000 ft
Mostly cloudy 25000 ft
2019/07/16 11:53 KMDW 161153Z VRB04KT 10SM FEW009 BKN022 BKN200 BKN250 23/22 A2994 RMK AO2 SLP126 60007 70007 T02280217 10261 20222 55005 $
KC09 - Morris, Illinois, USA
Distance from station: W 34mi, 54km
Updated: Tue, 16-Jul-2019 6:55am CDT
Mostly cloudy
Mostly cloudy
 Wind from SSE
Wind: SSE 6 mph , 9 km/h
Temperature: 72°F , 22°C
Dew Point: 72°F , 22°C
Humidity: 100%
Barometer: 29.92 inHg , 1013.2 hPa
Clouds: Mostly cloudy
Visibility: 10 miles , 16 km
Cloud details: Partly cloudy 1900 ft
Partly cloudy 3100 ft
Mostly cloudy 4900 ft
2019/07/16 11:55 KC09 161155Z AUTO 15005KT 10SM SCT019 SCT031 BKN049 22/22 A2992 RMK AO2 60021 70021 T02210218 10221 20210

Metar display script from Saratoga-Weather.org